Terminal Aerodrome Forecast
Issued by NWS Cleveland, OH

Home | Current Version | Previous Version | Graphics & Text | Print | Product List | Glossary Off
Versions: 1 2 3 4 5 6 7 8 9 10 11 12 13 14 15 16 17

031
FTUS41 KCLE 241359 AAB
TAFERI
TAF AMD
KERI 241359Z 2414/2512 21020G30KT P6SM SCT070 BKN100
     FM250000 23010KT P6SM OVC035
     FM250300 23010KT P6SM OVC025
     FM250700 22009KT P6SM OVC015=

USA.gov is the U.S. government's official web portal to all federal, state and local government web resources and services.